Time;durP1;ratioP1;P1;durP2;ratioP2;P2;SDS_P1;SDS_P2;PMS_P1;PMS_P2;Temp;Humidity;BMP_temperature;BMP_pressure;BME280_temperature;BME280_humidity;BME280_pressure;Samples;Min_cycle;Max_cycle;Signal;HPM_P1;HPM_P2
2022/08/03 00:01:45;;;;;;;2.50;2.30;;;25.00;99.90;;;;;;5063260;28;20438;-81
2022/08/03 00:04:13;;;;;;;2.63;2.43;;;24.90;99.90;;;;;;5065797;28;20966;-82
2022/08/03 00:06:41;;;;;;;2.23;2.07;;;24.90;99.90;;;;;;5059785;28;20986;-80
2022/08/03 00:09:10;;;;;;;2.73;2.53;;;24.90;99.90;;;;;;5066466;28;20466;-79
2022/08/03 00:11:39;;;;;;;3.13;2.93;;;24.90;99.90;;;;;;5098645;28;20485;-80
2022/08/03 00:14:07;;;;;;;2.60;2.40;;;24.80;99.90;;;;;;5063793;28;21008;-81
2022/08/03 00:16:37;;;;;;;3.20;2.90;;;24.80;99.90;;;;;;5063361;28;20459;-79
2022/08/03 00:19:05;;;;;;;3.20;3.00;;;24.80;99.90;;;;;;5063530;28;20471;-79
2022/08/03 00:21:33;;;;;;;6.43;3.50;;;24.80;99.90;;;;;;5064755;28;20451;-80
2022/08/03 00:24:01;;;;;;;4.13;3.83;;;24.80;99.90;;;;;;5064084;28;20448;-79
2022/08/03 00:26:30;;;;;;;3.10;2.43;;;24.80;99.90;;;;;;5063089;28;20818;-81
2022/08/03 00:28:58;;;;;;;3.33;2.50;;;24.80;99.90;;;;;;5062773;28;20490;-79
2022/08/03 00:31:26;;;;;;;3.80;2.73;;;24.80;99.90;;;;;;5059954;28;20466;-80
2022/08/03 00:34:16;;;;;;;4.60;3.20;;;24.80;99.90;;;;;;5065073;28;20545;-80
2022/08/03 00:36:59;;;;;;;3.37;2.90;;;24.80;99.90;;;;;;5062915;28;22179;-81
2022/08/03 00:39:27;;;;;;;3.17;2.90;;;24.80;99.90;;;;;;5067235;28;20466;-81
2022/08/03 00:41:55;;;;;;;3.70;3.30;;;24.70;99.90;;;;;;5066355;28;21240;-81
2022/08/03 00:44:23;;;;;;;3.27;3.07;;;24.70;99.90;;;;;;5063532;28;20451;-81
2022/08/03 00:46:51;;;;;;;3.07;2.77;;;25.00;99.90;;;;;;5063247;28;20457;-81
2022/08/03 00:49:21;;;;;;;6.00;4.10;;;24.70;99.90;;;;;;5062155;28;20462;-81
2022/08/03 00:51:49;;;;;;;3.80;3.10;;;24.70;99.90;;;;;;5064302;28;20574;-81
2022/08/03 00:54:18;;;;;;;3.23;2.93;;;24.60;99.90;;;;;;5065766;28;20455;-80
2022/08/03 00:56:47;;;;;;;3.10;2.60;;;24.60;99.90;;;;;;5065736;28;20473;-80
2022/08/03 00:59:27;;;;;;;3.67;3.37;;;24.60;99.90;;;;;;5060380;28;20587;-80
2022/08/03 01:01:56;;;;;;;3.07;2.87;;;24.50;99.90;;;;;;5067442;28;20457;-80
2022/08/03 01:04:25;;;;;;;3.50;3.20;;;24.50;99.90;;;;;;5068875;28;20462;-81
2022/08/03 01:07:03;;;;;;;2.63;2.40;;;24.50;99.90;;;;;;5066945;28;20525;-80
2022/08/03 01:09:46;;;;;;;3.33;3.00;;;24.40;99.90;;;;;;5068611;28;20473;-80
2022/08/03 01:12:22;;;;;;;2.60;2.40;;;24.40;99.90;;;;;;5063790;28;20474;-80
2022/08/03 01:14:56;;;;;;;2.50;2.30;;;24.40;99.90;;;;;;5067285;28;20457;-80
2022/08/03 01:17:28;;;;;;;2.90;2.63;;;24.40;99.90;;;;;;5068111;28;20460;-80
2022/08/03 01:20:02;;;;;;;2.90;2.70;;;24.30;99.90;;;;;;5064715;28;20482;-81
2022/08/03 01:23:10;;;;;;;2.93;2.73;;;24.30;99.90;;;;;;5066193;28;20446;-79
2022/08/03 01:25:59;;;;;;;3.50;3.20;;;24.30;99.90;;;;;;5063777;28;20462;-79
2022/08/03 01:28:45;;;;;;;3.43;3.10;;;24.30;99.90;;;;;;5062101;28;20454;-81
2022/08/03 01:31:19;;;;;;;3.20;2.97;;;24.20;99.90;;;;;;5063881;28;20459;-80
2022/08/03 01:33:52;;;;;;;3.57;3.37;;;24.20;99.90;;;;;;5066238;28;20966;-80
2022/08/03 01:36:25;;;;;;;3.70;3.40;;;24.20;99.90;;;;;;5062583;28;20454;-79
2022/08/03 01:38:58;;;;;;;4.23;3.23;;;24.20;99.90;;;;;;5066130;28;20459;-80
2022/08/03 01:41:31;;;;;;;6.10;3.23;;;24.10;99.90;;;;;;5064868;28;20458;-79
2022/08/03 01:44:02;;;;;;;6.77;3.07;;;24.20;99.90;;;;;;5065560;28;20470;-81
2022/08/03 01:46:53;;;;;;;3.67;3.30;;;24.10;99.90;;;;;;5062104;28;20550;-81
2022/08/03 01:49:21;;;;;;;3.77;3.57;;;24.10;99.90;;;;;;5063328;28;20856;-78
2022/08/03 01:51:51;;;;;;;3.40;3.20;;;24.10;99.90;;;;;;5064297;28;20963;-80
2022/08/03 01:54:44;;;;;;;3.30;3.10;;;24.10;99.90;;;;;;5067180;28;20478;-80
2022/08/03 01:57:13;;;;;;;3.33;3.00;;;24.10;99.90;;;;;;5065527;28;20450;-80
2022/08/03 01:59:43;;;;;;;3.00;2.80;;;24.10;99.90;;;;;;5067206;28;20894;-81
2022/08/03 02:02:15;;;;;;;3.83;3.53;;;24.00;99.90;;;;;;5063371;28;20450;-80
2022/08/03 02:05:03;;;;;;;3.70;2.90;;;24.00;99.90;;;;;;5064200;28;20467;-79
2022/08/03 02:07:33;;;;;;;3.23;2.97;;;24.00;99.90;;;;;;5065900;28;20465;-80
2022/08/03 02:10:03;;;;;;;3.23;2.90;;;24.00;99.90;;;;;;5062230;28;20472;-79
2022/08/03 02:12:34;;;;;;;3.33;3.03;;;24.00;99.90;;;;;;5062797;28;20475;-80
2022/08/03 02:15:02;;;;;;;3.10;2.80;;;24.00;99.90;;;;;;5063267;28;20993;-80
2022/08/03 02:17:33;;;;;;;2.90;2.70;;;24.00;99.90;;;;;;5063921;28;20778;-80
2022/08/03 02:20:08;;;;;;;3.57;3.30;;;23.90;99.90;;;;;;5064845;28;21714;-80
2022/08/03 02:22:40;;;;;;;3.10;2.90;;;23.90;99.90;;;;;;5065703;28;20843;-81
2022/08/03 02:25:09;;;;;;;3.40;3.10;;;23.90;99.90;;;;;;5065959;28;20480;-80
2022/08/03 02:27:42;;;;;;;3.73;3.33;;;23.90;99.90;;;;;;5069660;28;20453;-80
2022/08/03 02:30:13;;;;;;;4.77;3.30;;;23.90;99.90;;;;;;5066009;28;20504;-80
2022/08/03 02:32:48;;;;;;;3.03;2.83;;;23.90;99.90;;;;;;5064320;28;20547;-81
2022/08/03 02:35:18;;;;;;;4.17;3.40;;;23.90;99.90;;;;;;5063087;28;20480;-81
2022/08/03 02:37:50;;;;;;;3.20;3.00;;;23.90;99.90;;;;;;5065808;28;20844;-81
2022/08/03 02:40:20;;;;;;;3.50;3.20;;;23.90;99.90;;;;;;5065191;28;20504;-80
2022/08/03 02:42:51;;;;;;;3.23;3.03;;;23.90;99.90;;;;;;5064537;28;20458;-82
2022/08/03 02:45:21;;;;;;;3.30;3.00;;;23.90;99.90;;;;;;5064570;28;20523;-81
2022/08/03 02:47:55;;;;;;;3.80;3.50;;;23.80;99.90;;;;;;5065536;28;20970;-81
2022/08/03 02:50:24;;;;;;;2.90;2.70;;;23.90;99.90;;;;;;5065298;28;20616;-80
2022/08/03 02:52:54;;;;;;;3.60;3.40;;;23.80;99.90;;;;;;5063970;28;20870;-80
2022/08/03 02:55:26;;;;;;;2.70;2.50;;;23.80;99.90;;;;;;5062100;28;20954;-79
2022/08/03 02:57:55;;;;;;;3.43;3.23;;;23.80;99.90;;;;;;5064552;28;20852;-81
2022/08/03 03:00:29;;;;;;;3.77;3.33;;;23.70;99.90;;;;;;5067711;28;20470;-80
2022/08/03 03:03:01;;;;;;;2.83;2.63;;;23.70;99.90;;;;;;5067192;28;20459;-80
2022/08/03 03:05:30;;;;;;;3.47;3.17;;;23.70;99.90;;;;;;5065353;28;20443;-80
2022/08/03 03:08:21;;;;;;;3.90;3.50;;;23.70;99.90;;;;;;5066606;28;20547;-81
2022/08/03 03:10:54;;;;;;;3.33;3.03;;;23.70;99.90;;;;;;5063203;28;20463;-82
2022/08/03 03:13:23;;;;;;;3.50;2.97;;;23.70;99.90;;;;;;5067451;28;20577;-81
2022/08/03 03:15:52;;;;;;;3.43;3.13;;;23.70;99.90;;;;;;5064817;28;20463;-81
2022/08/03 03:18:23;;;;;;;3.53;3.23;;;23.60;99.90;;;;;;5067409;28;20973;-79
2022/08/03 03:20:53;;;;;;;3.77;3.20;;;23.60;99.90;;;;;;5063293;28;20462;-81
2022/08/03 03:23:23;;;;;;;3.73;3.43;;;23.60;99.90;;;;;;5062819;28;21070;-78
2022/08/03 03:25:52;;;;;;;3.10;2.90;;;23.50;99.90;;;;;;5063620;28;20463;-82
2022/08/03 03:28:20;;;;;;;6.43;3.10;;;23.60;99.90;;;;;;5064282;28;20454;-80
2022/08/03 03:30:48;;;;;;;2.97;2.70;;;23.50;99.90;;;;;;5065019;28;20462;-80
2022/08/03 03:33:20;;;;;;;3.43;2.63;;;23.60;99.90;;;;;;5064599;28;20486;-79
2022/08/03 03:35:51;;;;;;;3.73;3.50;;;23.50;99.90;;;;;;5063833;28;20455;-79
2022/08/03 03:38:20;;;;;;;3.97;2.50;;;23.60;99.90;;;;;;5065130;28;20467;-79
2022/08/03 03:40:49;;;;;;;3.20;3.00;;;23.50;99.90;;;;;;5062951;28;20500;-79
2022/08/03 03:43:18;;;;;;;3.37;2.97;;;23.50;99.90;;;;;;5061154;28;20450;-79
2022/08/03 03:45:47;;;;;;;3.93;3.63;;;23.50;99.90;;;;;;5060943;28;20493;-80
2022/08/03 03:48:16;;;;;;;3.37;3.07;;;23.50;99.90;;;;;;5065448;28;20469;-79
2022/08/03 03:50:45;;;;;;;3.13;2.93;;;23.40;99.90;;;;;;5066128;28;20462;-81
2022/08/03 03:53:14;;;;;;;3.33;3.13;;;23.40;99.90;;;;;;5059966;28;20478;-79
2022/08/03 03:55:43;;;;;;;3.70;3.27;;;23.40;99.90;;;;;;5062910;28;21305;-80
2022/08/03 03:58:30;;;;;;;4.33;4.03;;;23.40;99.90;;;;;;5064664;28;20483;-80
2022/08/03 04:00:58;;;;;;;3.90;3.50;;;23.40;99.90;;;;;;5058823;28;20454;-81
2022/08/03 04:03:27;;;;;;;2.87;2.53;;;23.30;99.90;;;;;;5061700;28;20443;-82
2022/08/03 04:11:32;;;;;;;4.60;3.13;;;23.30;99.90;;;;;;5062828;28;20450;-80
2022/08/03 04:14:06;;;;;;;4.37;3.03;;;23.30;99.90;;;;;;5057572;28;20479;-78
2022/08/03 04:16:37;;;;;;;3.60;3.10;;;23.30;99.90;;;;;;5062188;28;20454;-79
2022/08/03 04:19:14;;;;;;;3.73;3.30;;;23.30;99.90;;;;;;5063613;28;20960;-80
2022/08/03 04:21:51;;;;;;;3.80;3.50;;;23.30;99.90;;;;;;5062312;28;20490;-80
2022/08/03 04:24:30;;;;;;;3.60;2.70;;;23.30;99.90;;;;;;5061756;28;21340;-80
2022/08/03 04:27:00;;;;;;;3.20;2.90;;;23.30;99.90;;;;;;5061519;28;20530;-80
2022/08/03 04:29:31;;;;;;;3.27;3.07;;;23.30;99.90;;;;;;5064972;28;20459;-80
2022/08/03 04:32:01;;;;;;;4.03;3.70;;;23.20;99.90;;;;;;5064128;28;20450;-79
2022/08/03 04:34:30;;;;;;;3.20;2.90;;;23.20;99.90;;;;;;5067057;28;21073;-80
2022/08/03 04:37:01;;;;;;;4.53;4.13;;;23.20;99.90;;;;;;5069591;28;20471;-80
2022/08/03 04:39:32;;;;;;;3.53;3.23;;;23.30;99.90;;;;;;5068579;28;20542;-79
2022/08/03 04:42:04;;;;;;;3.67;3.37;;;23.30;99.90;;;;;;5065858;28;20448;-79
2022/08/03 04:44:39;;;;;;;3.60;3.30;;;23.30;99.90;;;;;;5064844;28;20476;-81
2022/08/03 04:47:07;;;;;;;4.30;3.73;;;23.30;99.90;;;;;;5063240;28;20462;-80
2022/08/03 04:49:37;;;;;;;3.90;3.57;;;23.30;99.90;;;;;;5068472;28;20473;-79
2022/08/03 04:52:07;;;;;;;6.10;4.70;;;23.40;99.90;;;;;;5071753;28;20450;-81
2022/08/03 04:54:41;;;;;;;9.60;6.20;;;23.30;99.90;;;;;;5062335;28;20848;-80
2022/08/03 04:57:10;;;;;;;9.67;6.07;;;23.30;99.90;;;;;;5054507;28;20503;-81
2022/08/03 04:59:53;;;;;;;10.03;5.87;;;23.30;99.90;;;;;;5079022;28;20477;-80
2022/08/03 05:02:29;;;;;;;9.30;5.63;;;23.40;99.90;;;;;;5062765;28;20447;-78
2022/08/03 05:04:57;;;;;;;6.63;5.10;;;23.40;99.90;;;;;;5068686;28;20454;-79
2022/08/03 05:07:25;;;;;;;7.27;5.00;;;23.40;99.90;;;;;;5054432;28;20458;-79
2022/08/03 05:10:07;;;;;;;5.03;4.37;;;23.40;99.90;;;;;;5067338;28;20479;-78
2022/08/03 05:12:44;;;;;;;9.40;4.90;;;23.40;99.90;;;;;;5067131;28;20465;-79
2022/08/03 05:15:12;;;;;;;5.20;4.70;;;23.40;99.90;;;;;;5059357;28;20483;-80
2022/08/03 05:17:40;;;;;;;4.73;4.33;;;23.50;99.90;;;;;;5063286;28;21266;-80
2022/08/03 05:20:10;;;;;;;5.70;4.83;;;23.40;99.90;;;;;;5066435;28;20481;-81
2022/08/03 05:22:38;;;;;;;4.90;3.83;;;23.50;99.90;;;;;;5070077;28;21126;-80
2022/08/03 05:25:08;;;;;;;4.17;3.73;;;23.50;99.90;;;;;;5069358;28;20442;-79
2022/08/03 05:27:44;;;;;;;5.57;4.90;;;23.60;99.90;;;;;;5067217;28;20447;-80
2022/08/03 05:30:13;;;;;;;4.50;4.10;;;23.60;99.90;;;;;;5066224;28;20477;-80
2022/08/03 05:33:01;;;;;;;6.30;4.53;;;23.60;99.90;;;;;;5069091;28;20462;-81
2022/08/03 05:35:30;;;;;;;4.80;4.40;;;23.70;99.90;;;;;;5059963;28;20478;-78
2022/08/03 05:38:18;;;;;;;4.83;4.33;;;23.70;99.90;;;;;;5066591;28;20466;-79
2022/08/03 05:40:56;;;;;;;4.60;4.30;;;23.70;99.90;;;;;;5063663;28;20512;-80
2022/08/03 05:43:44;;;;;;;4.30;3.90;;;23.70;99.90;;;;;;5062551;28;20458;-79
2022/08/03 05:46:13;;;;;;;6.30;4.70;;;23.70;99.90;;;;;;5066400;28;20446;-81
2022/08/03 05:48:41;;;;;;;4.50;4.10;;;23.80;99.90;;;;;;5067799;28;21053;-79
2022/08/03 05:51:10;;;;;;;7.93;5.30;;;23.80;99.90;;;;;;5064834;28;20450;-79
2022/08/03 05:53:39;;;;;;;4.63;4.23;;;23.80;99.90;;;;;;5066643;28;20544;-79
2022/08/03 05:56:09;;;;;;;7.47;4.33;;;23.90;99.90;;;;;;5063261;28;20455;-80
2022/08/03 05:58:43;;;;;;;7.20;4.70;;;23.90;99.90;;;;;;5068617;28;20484;-80
2022/08/03 06:01:11;;;;;;;6.60;3.90;;;23.90;99.90;;;;;;5068814;28;20454;-79
2022/08/03 06:03:40;;;;;;;4.67;4.23;;;24.00;99.90;;;;;;5069556;28;20497;-78
2022/08/03 06:06:08;;;;;;;5.33;4.20;;;24.00;99.90;;;;;;5067922;28;20457;-79
2022/08/03 06:08:37;;;;;;;4.50;4.10;;;24.10;99.90;;;;;;5065684;28;20462;-79
2022/08/03 06:11:05;;;;;;;5.63;4.50;;;24.20;99.90;;;;;;5063771;28;20462;-79
2022/08/03 06:13:35;;;;;;;6.87;4.37;;;24.30;99.90;;;;;;5069756;28;20453;-79
2022/08/03 06:16:03;;;;;;;5.13;3.83;;;24.30;99.90;;;;;;5064139;28;20474;-80
2022/08/03 06:18:31;;;;;;;3.80;3.33;;;24.40;99.90;;;;;;5067948;28;20454;-79
2022/08/03 06:20:59;;;;;;;3.70;3.40;;;24.50;99.90;;;;;;5078240;28;20455;-79
2022/08/03 06:23:43;;;;;;;3.43;3.13;;;24.50;99.90;;;;;;5068204;28;20451;-79
2022/08/03 06:26:24;;;;;;;5.63;4.00;;;24.60;99.90;;;;;;5063356;28;20447;-76
2022/08/03 06:28:54;;;;;;;3.77;3.47;;;24.70;99.90;;;;;;5067942;28;21245;-79
2022/08/03 06:31:24;;;;;;;4.10;2.93;;;24.70;99.90;;;;;;5061206;28;20533;-78
2022/08/03 06:34:02;;;;;;;3.17;2.67;;;24.70;99.90;;;;;;5065388;28;20450;-79
2022/08/03 06:36:50;;;;;;;5.00;3.13;;;24.80;99.90;;;;;;5068851;28;20966;-78
2022/08/03 06:39:20;;;;;;;3.27;2.97;;;24.90;99.90;;;;;;5065174;28;20466;-80
2022/08/03 06:41:51;;;;;;;3.50;3.20;;;24.90;99.90;;;;;;5065792;28;20483;-79
2022/08/03 06:44:21;;;;;;;3.40;2.73;;;25.00;99.90;;;;;;5066364;28;20469;-81
2022/08/03 06:46:50;;;;;;;2.80;2.60;;;25.00;99.90;;;;;;5065477;28;20455;-80
2022/08/03 06:49:18;;;;;;;2.37;2.27;;;25.10;99.90;;;;;;5064806;28;20482;-80
2022/08/03 06:51:47;;;;;;;2.30;2.10;;;25.30;99.90;;;;;;5065594;28;23270;-79
2022/08/03 06:54:35;;;;;;;2.80;2.30;;;25.50;99.90;;;;;;5059313;28;21370;-80
2022/08/03 06:57:05;;;;;;;1.80;1.70;;;25.70;99.90;;;;;;5063032;28;20843;-80
2022/08/03 06:59:34;;;;;;;2.33;2.13;;;25.90;99.90;;;;;;5067385;28;20474;-80
2022/08/03 07:02:22;;;;;;;1.80;1.70;;;26.10;99.90;;;;;;5069617;28;20492;-78
2022/08/03 07:04:53;;;;;;;1.93;1.80;;;26.30;99.90;;;;;;5063636;28;20484;-80
2022/08/03 07:07:21;;;;;;;2.00;1.90;;;26.50;99.90;;;;;;5067787;28;20966;-79
2022/08/03 07:09:49;;;;;;;2.23;1.43;;;26.60;99.90;;;;;;5062490;28;20477;-80
2022/08/03 07:12:26;;;;;;;1.70;1.60;;;26.70;99.90;;;;;;5063435;28;20450;-79
2022/08/03 07:14:57;;;;;;;1.47;1.37;;;26.70;99.90;;;;;;5066665;28;20989;-80
2022/08/03 07:17:30;;;;;;;1.50;1.40;;;26.80;99.90;;;;;;5065974;28;20450;-79
2022/08/03 07:19:59;;;;;;;1.67;1.57;;;27.00;99.90;;;;;;5065253;28;20486;-79
2022/08/03 07:22:27;;;;;;;2.50;1.87;;;27.00;99.90;;;;;;5063230;28;20516;-79
2022/08/03 07:24:56;;;;;;;1.57;1.47;;;27.00;99.90;;;;;;5064585;28;20461;-79
2022/08/03 07:27:25;;;;;;;2.17;1.80;;;27.00;99.90;;;;;;5061398;28;20467;-79
2022/08/03 07:29:54;;;;;;;1.43;1.30;;;27.10;99.90;;;;;;5064425;28;20550;-79
2022/08/03 07:32:24;;;;;;;1.83;1.50;;;27.10;99.90;;;;;;5062490;28;20456;-80
2022/08/03 07:34:52;;;;;;;2.10;1.70;;;27.10;99.90;;;;;;5067691;28;20478;-80
2022/08/03 07:37:27;;;;;;;1.43;1.33;;;27.10;99.90;;;;;;5062502;28;20500;-79
2022/08/03 07:39:56;;;;;;;1.40;1.30;;;27.20;99.90;;;;;;5064022;28;20481;-80
2022/08/03 07:42:24;;;;;;;1.30;1.20;;;27.20;99.90;;;;;;5067451;28;20459;-79
2022/08/03 07:44:52;;;;;;;1.60;1.50;;;27.30;99.90;;;;;;5063160;28;20461;-79
2022/08/03 07:47:21;;;;;;;1.50;1.30;;;27.30;99.90;;;;;;5063268;28;20958;-80
2022/08/03 07:49:51;;;;;;;1.43;1.33;;;27.30;99.90;;;;;;5065084;28;20519;-80
2022/08/03 07:55:06;;;;;;;1.40;1.30;;;27.40;99.90;;;;;;5064621;28;20531;-81
2022/08/03 07:57:35;;;;;;;1.20;1.10;;;27.40;99.90;;;;;;5068578;28;20454;-80
2022/08/03 08:00:05;;;;;;;1.30;1.20;;;27.40;99.90;;;;;;5065684;28;20467;-80
2022/08/03 08:02:33;;;;;;;1.27;1.03;;;27.40;99.90;;;;;;5063198;28;21027;-80
2022/08/03 08:05:03;;;;;;;1.20;1.10;;;27.30;99.90;;;;;;5065961;28;20450;-80
2022/08/03 08:07:33;;;;;;;1.10;1.10;;;27.40;99.90;;;;;;5064538;28;21175;-77
2022/08/03 08:10:01;;;;;;;1.10;0.93;;;27.40;99.90;;;;;;5105237;27;20481;-78
2022/08/03 08:12:29;;;;;;;1.20;1.10;;;27.40;99.90;;;;;;5072038;28;20542;-78
2022/08/03 08:14:57;;;;;;;1.23;1.13;;;27.40;99.90;;;;;;5069013;28;20538;-79
2022/08/03 08:17:26;;;;;;;1.00;1.00;;;27.40;99.90;;;;;;5073071;28;20512;-80
2022/08/03 08:19:54;;;;;;;1.30;1.20;;;27.50;99.90;;;;;;5073279;28;20484;-78
2022/08/03 08:22:24;;;;;;;1.20;1.10;;;27.50;99.90;;;;;;5071937;28;20523;-79
2022/08/03 08:24:58;;;;;;;1.33;1.23;;;27.50;99.90;;;;;;5071250;28;20454;-78
2022/08/03 08:27:28;;;;;;;1.20;1.10;;;27.50;99.90;;;;;;5069228;28;20450;-79
2022/08/03 08:30:18;;;;;;;0.97;0.97;;;27.50;99.90;;;;;;5069005;28;20826;-80
2022/08/03 08:32:46;;;;;;;1.40;1.30;;;27.50;99.90;;;;;;5069861;28;20490;-80
2022/08/03 08:35:15;;;;;;;1.20;1.10;;;27.50;99.90;;;;;;5068343;28;20462;-78
2022/08/03 08:37:45;;;;;;;1.30;1.20;;;27.50;99.90;;;;;;5068882;28;21319;-80
2022/08/03 08:40:21;;;;;;;1.17;1.07;;;27.50;99.90;;;;;;5064767;28;20462;-78
2022/08/03 08:42:50;;;;;;;1.57;1.47;;;27.50;99.90;;;;;;5069585;28;20438;-78
2022/08/03 08:45:25;;;;;;;1.10;0.97;;;27.60;99.90;;;;;;5068254;28;20500;-77
2022/08/03 08:47:57;;;;;;;1.20;1.10;;;27.60;99.90;;;;;;5071363;28;23080;-79
2022/08/03 08:50:32;;;;;;;1.80;1.07;;;27.60;99.90;;;;;;5066711;28;20481;-77
2022/08/03 08:53:03;;;;;;;1.80;1.13;;;27.60;99.90;;;;;;5071883;28;21296;-77
2022/08/03 08:55:33;;;;;;;1.30;1.20;;;27.70;99.90;;;;;;5063770;28;20450;-78
2022/08/03 08:58:22;;;;;;;1.07;1.00;;;27.70;99.90;;;;;;5065483;28;20549;-78
2022/08/03 09:00:51;;;;;;;1.03;1.03;;;27.70;99.90;;;;;;5070978;28;20447;-80
2022/08/03 09:03:20;;;;;;;1.07;0.97;;;27.70;99.90;;;;;;5066055;28;20468;-79
2022/08/03 09:06:01;;;;;;;1.10;1.00;;;27.70;99.90;;;;;;5073771;28;20448;-79
2022/08/03 09:08:32;;;;;;;1.10;1.10;;;27.80;99.90;;;;;;5060759;28;20553;-77
2022/08/03 09:11:00;;;;;;;1.20;1.00;;;27.80;99.90;;;;;;5063984;28;20796;-75
2022/08/03 09:13:29;;;;;;;1.00;0.97;;;27.80;99.90;;;;;;5060867;28;20458;-76
2022/08/03 09:16:14;;;;;;;1.03;1.00;;;27.80;99.90;;;;;;5066500;28;20519;-77
2022/08/03 09:18:43;;;;;;;1.00;1.00;;;27.80;99.90;;;;;;5067555;28;20956;-77
2022/08/03 09:21:15;;;;;;;1.20;1.10;;;27.80;99.90;;;;;;5059615;28;20459;-78
2022/08/03 09:24:03;;;;;;;1.50;1.40;;;27.90;99.90;;;;;;5065090;28;20836;-78
2022/08/03 09:26:37;;;;;;;1.10;1.10;;;27.90;99.90;;;;;;5066521;28;20465;-78
2022/08/03 09:29:09;;;;;;;1.10;1.10;;;27.90;99.90;;;;;;5064852;28;20880;-76
2022/08/03 09:31:44;;;;;;;1.13;1.03;;;27.90;99.90;;;;;;5066723;28;20454;-77
2022/08/03 09:34:14;;;;;;;1.47;1.07;;;28.00;99.90;;;;;;5065990;28;20465;-76
2022/08/03 09:36:44;;;;;;;1.20;1.10;;;28.00;99.90;;;;;;5051569;28;20478;-78
2022/08/03 09:39:15;;;;;;;1.50;1.20;;;28.00;99.90;;;;;;5057763;28;20483;-77
2022/08/03 09:41:46;;;;;;;1.20;1.10;;;28.00;99.90;;;;;;5060732;28;20497;-77
2022/08/03 09:44:15;;;;;;;1.00;1.00;;;28.00;99.90;;;;;;5056548;28;21135;-79
2022/08/03 09:46:55;;;;;;;1.20;1.10;;;28.00;99.90;;;;;;5060923;28;20875;-79
2022/08/03 09:49:23;;;;;;;1.73;1.07;;;28.10;99.90;;;;;;5064550;28;20471;-77
2022/08/03 09:51:52;;;;;;;1.70;1.00;;;28.10;99.90;;;;;;5062744;28;20533;-76
2022/08/03 09:54:43;;;;;;;0.97;0.97;;;28.20;99.90;;;;;;5062159;28;20464;-76
2022/08/03 09:57:21;;;;;;;1.23;0.97;;;28.10;99.90;;;;;;5057736;28;20488;-77
2022/08/03 09:59:51;;;;;;;1.00;1.00;;;28.10;99.90;;;;;;5062687;28;21044;-79
2022/08/03 10:02:30;;;;;;;1.63;1.20;;;28.10;99.90;;;;;;5060784;28;20458;-82
2022/08/03 10:04:58;;;;;;;1.20;1.10;;;28.20;99.90;;;;;;5067475;28;20966;-81
2022/08/03 10:07:27;;;;;;;1.10;1.00;;;28.30;99.90;;;;;;5067030;28;20451;-83
2022/08/03 10:09:58;;;;;;;1.13;1.03;;;28.40;99.90;;;;;;5070340;28;20539;-81
2022/08/03 10:12:47;;;;;;;1.47;1.20;;;28.40;99.90;;;;;;5070089;28;20438;-81
2022/08/03 10:15:16;;;;;;;1.20;1.10;;;28.50;99.90;;;;;;5068776;28;21278;-81
2022/08/03 10:18:05;;;;;;;1.00;1.00;;;28.60;99.90;;;;;;5069630;28;20462;-82
2022/08/03 10:20:37;;;;;;;1.20;1.10;;;28.70;99.90;;;;;;5070592;28;21024;-83
2022/08/03 10:23:07;;;;;;;1.20;1.10;;;28.80;99.90;;;;;;5065107;28;20538;-81
2022/08/03 10:25:39;;;;;;;1.20;1.10;;;28.80;99.90;;;;;;5065087;28;20449;-81
2022/08/03 10:28:10;;;;;;;1.20;1.10;;;28.80;99.90;;;;;;5067256;28;20827;-81
2022/08/03 10:30:41;;;;;;;1.47;1.37;;;28.90;99.90;;;;;;5065091;28;20561;-82
2022/08/03 10:33:17;;;;;;;1.50;1.10;;;28.80;99.90;;;;;;5070899;28;20809;-81
2022/08/03 10:36:06;;;;;;;1.33;1.07;;;28.90;99.90;;;;;;5066200;28;20457;-81
2022/08/03 10:38:40;;;;;;;0.83;0.83;;;29.00;99.90;;;;;;5064317;28;20450;-81
2022/08/03 10:41:10;;;;;;;1.37;1.27;;;28.90;99.90;;;;;;5067637;28;20520;-81
2022/08/03 10:43:47;;;;;;;1.30;1.20;;;29.00;99.90;;;;;;5059402;28;20455;-81
2022/08/03 10:46:17;;;;;;;1.20;1.10;;;29.10;99.90;;;;;;5059556;28;20457;-81
2022/08/03 10:48:47;;;;;;;1.40;1.20;;;29.20;99.90;;;;;;5061335;28;20497;-82
2022/08/03 10:51:15;;;;;;;1.00;1.00;;;29.20;99.90;;;;;;5052060;28;20467;-81
2022/08/03 10:53:44;;;;;;;1.37;1.20;;;29.10;99.90;;;;;;5059736;28;20450;-82
2022/08/03 10:59:58;;;;;;;1.43;1.33;;;29.20;99.90;;;;;;5064364;28;20493;-81
2022/08/03 11:02:59;;;;;;;2.10;1.50;;;29.20;99.90;;;;;;5054723;28;20831;-82
2022/08/03 11:05:29;;;;;;;1.70;1.20;;;29.30;99.90;;;;;;5058652;28;20697;-81
2022/08/03 11:08:26;;;;;;;1.57;1.20;;;29.30;99.90;;;;;;5058794;28;20451;-82
2022/08/03 11:10:56;;;;;;;1.43;1.30;;;29.30;99.90;;;;;;5064843;28;20447;-82
2022/08/03 11:13:30;;;;;;;1.60;1.50;;;29.40;99.90;;;;;;5064624;28;20442;-82
2022/08/03 11:16:02;;;;;;;1.10;1.07;;;29.50;99.90;;;;;;5058864;28;20461;-82
2022/08/03 11:18:34;;;;;;;1.97;1.10;;;29.40;99.90;;;;;;5056690;28;20482;-82
2022/08/03 11:21:03;;;;;;;1.97;1.10;;;29.50;99.90;;;;;;5061667;28;20458;-82
2022/08/03 11:23:44;;;;;;;1.20;1.10;;;29.50;99.90;;;;;;5062964;28;20447;-83
2022/08/03 11:26:33;;;;;;;1.30;1.20;;;29.40;99.90;;;;;;5062682;28;20517;-82
2022/08/03 11:29:28;;;;;;;1.30;1.20;;;29.50;99.90;;;;;;5064441;28;20466;-81
2022/08/03 11:31:57;;;;;;;1.20;1.10;;;29.50;99.90;;;;;;5062750;28;21473;-82
2022/08/03 11:34:25;;;;;;;1.00;1.00;;;29.60;99.90;;;;;;5065338;28;20549;-81
2022/08/03 11:37:19;;;;;;;1.20;1.10;;;29.60;99.90;;;;;;5061756;28;20455;-81
2022/08/03 11:39:51;;;;;;;1.93;1.30;;;29.60;99.90;;;;;;5059455;28;20481;-82
2022/08/03 11:42:46;;;;;;;1.40;1.30;;;29.60;99.90;;;;;;5063723;28;20462;-82
2022/08/03 11:45:18;;;;;;;1.00;1.00;;;29.70;99.90;;;;;;5058711;28;20486;-82
2022/08/03 11:47:49;;;;;;;1.23;1.13;;;29.70;99.90;;;;;;5064337;28;20435;-82
2022/08/03 11:50:20;;;;;;;1.30;1.20;;;29.80;99.90;;;;;;5063126;28;21005;-82
2022/08/03 11:52:49;;;;;;;1.00;0.90;;;29.80;99.90;;;;;;5065171;28;20451;-82
2022/08/03 11:55:20;;;;;;;1.70;1.60;;;29.80;99.90;;;;;;5071018;28;20458;-82
2022/08/03 11:57:49;;;;;;;1.30;1.20;;;29.90;99.90;;;;;;5066011;28;21009;-82
2022/08/03 12:00:38;;;;;;;1.03;1.03;;;29.90;99.90;;;;;;5064027;28;20942;-82
2022/08/03 12:03:10;;;;;;;1.63;1.40;;;29.90;99.90;;;;;;5063318;28;23361;-81
2022/08/03 12:05:45;;;;;;;1.33;1.23;;;29.90;99.90;;;;;;5061976;28;20446;-81
2022/08/03 12:08:30;;;;;;;1.30;1.20;;;29.90;99.90;;;;;;5074773;28;20450;-82
2022/08/03 12:11:01;;;;;;;1.87;1.40;;;30.00;99.90;;;;;;5065330;28;21206;-82
2022/08/03 12:13:38;;;;;;;1.40;1.20;;;30.00;99.90;;;;;;5064305;28;20467;-82
2022/08/03 12:16:28;;;;;;;1.47;1.37;;;30.10;99.90;;;;;;5061309;28;20859;-82
2022/08/03 12:18:59;;;;;;;1.20;1.10;;;30.10;99.90;;;;;;5062052;28;20478;-82
2022/08/03 12:21:28;;;;;;;1.37;1.27;;;30.10;99.90;;;;;;5063058;28;20454;-82
2022/08/03 12:24:00;;;;;;;1.60;1.50;;;30.10;99.90;;;;;;5058091;28;20454;-81
2022/08/03 12:26:30;;;;;;;1.30;1.20;;;30.10;99.90;;;;;;5060137;28;20465;-82
2022/08/03 12:28:58;;;;;;;1.60;1.50;;;30.10;99.90;;;;;;5058428;28;20824;-82
2022/08/03 12:31:28;;;;;;;1.10;1.10;;;30.10;99.90;;;;;;5055892;28;21031;-81
2022/08/03 12:34:01;;;;;;;1.50;1.40;;;30.10;99.90;;;;;;5061672;28;20458;-82
2022/08/03 12:36:31;;;;;;;1.20;1.10;;;30.10;99.90;;;;;;5055903;28;20970;-82
2022/08/03 12:39:02;;;;;;;1.30;1.20;;;30.10;99.90;;;;;;5056755;28;20495;-82
2022/08/03 12:41:33;;;;;;;1.53;1.20;;;30.20;99.90;;;;;;5064337;28;20458;-82
2022/08/03 12:44:03;;;;;;;1.03;1.03;;;30.20;99.90;;;;;;5059014;28;21141;-82
2022/08/03 12:46:35;;;;;;;1.20;1.10;;;30.30;99.90;;;;;;5063654;28;20468;-82
2022/08/03 12:49:09;;;;;;;1.20;1.10;;;30.30;99.90;;;;;;5062510;28;20466;-82
2022/08/03 12:51:56;;;;;;;1.30;1.20;;;30.30;99.90;;;;;;5064047;28;20450;-82
2022/08/03 12:54:27;;;;;;;1.20;1.10;;;30.30;99.90;;;;;;5062655;28;20466;-82
2022/08/03 12:56:58;;;;;;;1.30;1.20;;;30.30;99.90;;;;;;5061492;28;20961;-82
2022/08/03 12:59:28;;;;;;;1.43;1.33;;;30.30;99.90;;;;;;5065899;28;20606;-81
2022/08/03 13:02:15;;;;;;;1.57;1.30;;;30.30;99.90;;;;;;5064378;28;20462;-82
2022/08/03 13:04:45;;;;;;;2.27;1.10;;;30.30;99.90;;;;;;5064512;28;20515;-81
2022/08/03 13:07:14;;;;;;;1.00;1.00;;;30.40;99.90;;;;;;5060679;28;20470;-82
2022/08/03 13:09:47;;;;;;;1.40;1.23;;;30.50;99.90;;;;;;5065776;28;20474;-83
2022/08/03 13:12:17;;;;;;;1.50;1.40;;;30.50;99.90;;;;;;5066891;28;20487;-82
2022/08/03 13:14:47;;;;;;;1.53;1.20;;;30.50;99.90;;;;;;5065524;28;20466;-82
2022/08/03 13:17:16;;;;;;;1.10;1.00;;;30.50;99.90;;;;;;5062983;28;20459;-82
2022/08/03 13:19:46;;;;;;;1.20;1.10;;;30.50;99.90;;;;;;5060283;28;20495;-82
2022/08/03 13:22:16;;;;;;;2.77;1.90;;;30.50;99.90;;;;;;5065712;28;20456;-82
2022/08/03 13:24:46;;;;;;;2.70;1.30;;;30.60;99.90;;;;;;5064397;28;20458;-83
2022/08/03 13:27:14;;;;;;;1.30;1.20;;;30.60;99.90;;;;;;5061755;28;20730;-82
2022/08/03 13:30:03;;;;;;;1.20;1.10;;;30.60;99.90;;;;;;5063567;28;20566;-82